sensor_id;sensor_type;location;lat;lon;timestamp;P1;durP1;ratioP1;P2;durP2;ratioP2
7645;SDS011;3864;48.180;14.178;2023-10-09T00:02:08;3.50;;;1.92;;
7645;SDS011;3864;48.180;14.178;2023-10-09T00:04:35;2.67;;;1.73;;
7645;SDS011;3864;48.180;14.178;2023-10-09T00:07:03;3.40;;;2.10;;
7645;SDS011;3864;48.180;14.178;2023-10-09T00:09:33;2.90;;;1.98;;
7645;SDS011;3864;48.180;14.178;2023-10-09T00:12:11;2.50;;;1.70;;
7645;SDS011;3864;48.180;14.178;2023-10-09T00:14:47;2.42;;;1.75;;
7645;SDS011;3864;48.180;14.178;2023-10-09T00:17:17;3.92;;;1.90;;
7645;SDS011;3864;48.180;14.178;2023-10-09T00:19:44;3.22;;;2.03;;
7645;SDS011;3864;48.180;14.178;2023-10-09T00:22:15;3.35;;;1.73;;
7645;SDS011;3864;48.180;14.178;2023-10-09T00:24:52;2.70;;;1.90;;
7645;SDS011;3864;48.180;14.178;2023-10-09T00:27:34;2.75;;;1.80;;
7645;SDS011;3864;48.180;14.178;2023-10-09T00:30:01;4.18;;;1.90;;
7645;SDS011;3864;48.180;14.178;2023-10-09T00:32:32;2.53;;;1.80;;
7645;SDS011;3864;48.180;14.178;2023-10-09T00:35:02;3.00;;;1.73;;
7645;SDS011;3864;48.180;14.178;2023-10-09T00:38:00;2.90;;;1.80;;
7645;SDS011;3864;48.180;14.178;2023-10-09T00:40:32;3.25;;;1.90;;
7645;SDS011;3864;48.180;14.178;2023-10-09T00:43:07;4.75;;;2.10;;
7645;SDS011;3864;48.180;14.178;2023-10-09T00:45:38;4.13;;;1.73;;
7645;SDS011;3864;48.180;14.178;2023-10-09T00:48:07;3.40;;;1.65;;
7645;SDS011;3864;48.180;14.178;2023-10-09T00:50:35;2.80;;;1.90;;
7645;SDS011;3864;48.180;14.178;2023-10-09T00:53:04;3.05;;;2.00;;
7645;SDS011;3864;48.180;14.178;2023-10-09T00:55:37;3.58;;;2.17;;
7645;SDS011;3864;48.180;14.178;2023-10-09T00:58:11;2.78;;;1.88;;
7645;SDS011;3864;48.180;14.178;2023-10-09T01:00:39;3.47;;;1.90;;
7645;SDS011;3864;48.180;14.178;2023-10-09T01:03:14;2.75;;;1.75;;
7645;SDS011;3864;48.180;14.178;2023-10-09T01:05:46;2.67;;;1.85;;
7645;SDS011;3864;48.180;14.178;2023-10-09T01:08:23;2.92;;;1.63;;
7645;SDS011;3864;48.180;14.178;2023-10-09T01:10:54;3.83;;;2.13;;
7645;SDS011;3864;48.180;14.178;2023-10-09T01:13:24;3.28;;;1.95;;
7645;SDS011;3864;48.180;14.178;2023-10-09T01:16:04;3.40;;;2.20;;
7645;SDS011;3864;48.180;14.178;2023-10-09T01:18:34;3.70;;;2.08;;
7645;SDS011;3864;48.180;14.178;2023-10-09T01:21:06;2.90;;;2.00;;
7645;SDS011;3864;48.180;14.178;2023-10-09T01:23:34;4.50;;;2.20;;
7645;SDS011;3864;48.180;14.178;2023-10-09T01:26:23;3.10;;;2.20;;
7645;SDS011;3864;48.180;14.178;2023-10-09T01:28:51;3.40;;;2.08;;
7645;SDS011;3864;48.180;14.178;2023-10-09T01:31:23;3.55;;;2.15;;
7645;SDS011;3864;48.180;14.178;2023-10-09T01:33:51;3.00;;;2.10;;
7645;SDS011;3864;48.180;14.178;2023-10-09T01:36:24;3.55;;;1.92;;
7645;SDS011;3864;48.180;14.178;2023-10-09T01:38:59;3.78;;;2.20;;
7645;SDS011;3864;48.180;14.178;2023-10-09T01:41:32;4.47;;;2.30;;
7645;SDS011;3864;48.180;14.178;2023-10-09T01:43:59;3.90;;;2.40;;
7645;SDS011;3864;48.180;14.178;2023-10-09T01:46:35;4.00;;;2.17;;
7645;SDS011;3864;48.180;14.178;2023-10-09T01:49:02;2.97;;;2.05;;
7645;SDS011;3864;48.180;14.178;2023-10-09T01:51:36;3.40;;;2.20;;
7645;SDS011;3864;48.180;14.178;2023-10-09T01:54:05;5.10;;;2.70;;
7645;SDS011;3864;48.180;14.178;2023-10-09T01:56:32;3.92;;;2.40;;
7645;SDS011;3864;48.180;14.178;2023-10-09T01:59:03;4.15;;;2.67;;
7645;SDS011;3864;48.180;14.178;2023-10-09T02:01:33;4.70;;;2.65;;
7645;SDS011;3864;48.180;14.178;2023-10-09T02:04:06;4.95;;;2.70;;
7645;SDS011;3864;48.180;14.178;2023-10-09T02:06:38;4.35;;;2.38;;
7645;SDS011;3864;48.180;14.178;2023-10-09T02:09:07;4.88;;;2.92;;
7645;SDS011;3864;48.180;14.178;2023-10-09T02:14:11;4.28;;;2.72;;
7645;SDS011;3864;48.180;14.178;2023-10-09T02:16:46;3.97;;;2.80;;
7645;SDS011;3864;48.180;14.178;2023-10-09T02:19:28;4.68;;;2.45;;
7645;SDS011;3864;48.180;14.178;2023-10-09T02:21:59;6.13;;;3.10;;
7645;SDS011;3864;48.180;14.178;2023-10-09T02:24:31;4.72;;;2.50;;
7645;SDS011;3864;48.180;14.178;2023-10-09T02:27:23;6.85;;;3.13;;
7645;SDS011;3864;48.180;14.178;2023-10-09T02:30:11;5.90;;;3.15;;
7645;SDS011;3864;48.180;14.178;2023-10-09T02:33:07;4.40;;;2.50;;
7645;SDS011;3864;48.180;14.178;2023-10-09T02:35:34;5.57;;;2.90;;
7645;SDS011;3864;48.180;14.178;2023-10-09T02:38:07;5.10;;;3.08;;
7645;SDS011;3864;48.180;14.178;2023-10-09T02:40:39;5.20;;;3.38;;
7645;SDS011;3864;48.180;14.178;2023-10-09T02:43:26;5.72;;;2.70;;
7645;SDS011;3864;48.180;14.178;2023-10-09T02:45:56;5.63;;;2.90;;
7645;SDS011;3864;48.180;14.178;2023-10-09T02:48:24;5.43;;;3.30;;
7645;SDS011;3864;48.180;14.178;2023-10-09T02:53:22;4.43;;;2.65;;
7645;SDS011;3864;48.180;14.178;2023-10-09T02:55:55;4.50;;;2.53;;
7645;SDS011;3864;48.180;14.178;2023-10-09T02:58:37;4.22;;;2.70;;
7645;SDS011;3864;48.180;14.178;2023-10-09T03:01:08;6.18;;;3.05;;
7645;SDS011;3864;48.180;14.178;2023-10-09T03:03:39;4.53;;;2.80;;
7645;SDS011;3864;48.180;14.178;2023-10-09T03:06:10;5.32;;;3.13;;
7645;SDS011;3864;48.180;14.178;2023-10-09T03:08:38;4.43;;;2.88;;
7645;SDS011;3864;48.180;14.178;2023-10-09T03:11:06;5.35;;;3.30;;
7645;SDS011;3864;48.180;14.178;2023-10-09T03:13:38;6.50;;;3.15;;
7645;SDS011;3864;48.180;14.178;2023-10-09T03:16:08;6.13;;;3.00;;
7645;SDS011;3864;48.180;14.178;2023-10-09T03:18:41;5.63;;;3.20;;
7645;SDS011;3864;48.180;14.178;2023-10-09T03:21:08;4.90;;;2.53;;
7645;SDS011;3864;48.180;14.178;2023-10-09T03:23:35;6.95;;;2.97;;
7645;SDS011;3864;48.180;14.178;2023-10-09T03:26:03;4.97;;;3.22;;
7645;SDS011;3864;48.180;14.178;2023-10-09T03:28:31;6.32;;;2.85;;
7645;SDS011;3864;48.180;14.178;2023-10-09T03:30:58;5.40;;;2.95;;
7645;SDS011;3864;48.180;14.178;2023-10-09T03:33:27;4.75;;;2.90;;
7645;SDS011;3864;48.180;14.178;2023-10-09T03:35:59;6.20;;;3.20;;
7645;SDS011;3864;48.180;14.178;2023-10-09T03:38:26;5.35;;;2.85;;
7645;SDS011;3864;48.180;14.178;2023-10-09T03:41:00;5.07;;;3.25;;
7645;SDS011;3864;48.180;14.178;2023-10-09T03:43:30;5.05;;;2.80;;
7645;SDS011;3864;48.180;14.178;2023-10-09T03:46:02;7.78;;;3.47;;
7645;SDS011;3864;48.180;14.178;2023-10-09T03:48:30;4.43;;;2.88;;
7645;SDS011;3864;48.180;14.178;2023-10-09T03:51:03;5.10;;;2.72;;
7645;SDS011;3864;48.180;14.178;2023-10-09T03:53:36;5.13;;;2.50;;
7645;SDS011;3864;48.180;14.178;2023-10-09T03:56:04;5.10;;;2.65;;
7645;SDS011;3864;48.180;14.178;2023-10-09T03:58:37;4.75;;;2.80;;
7645;SDS011;3864;48.180;14.178;2023-10-09T04:01:07;5.00;;;2.75;;
7645;SDS011;3864;48.180;14.178;2023-10-09T04:03:38;5.10;;;2.67;;
7645;SDS011;3864;48.180;14.178;2023-10-09T04:06:07;4.50;;;2.47;;
7645;SDS011;3864;48.180;14.178;2023-10-09T04:08:36;5.18;;;3.00;;
7645;SDS011;3864;48.180;14.178;2023-10-09T04:11:09;4.88;;;3.20;;
7645;SDS011;3864;48.180;14.178;2023-10-09T04:13:41;5.43;;;3.17;;
7645;SDS011;3864;48.180;14.178;2023-10-09T04:16:11;4.97;;;2.80;;
7645;SDS011;3864;48.180;14.178;2023-10-09T04:18:59;4.45;;;3.03;;
7645;SDS011;3864;48.180;14.178;2023-10-09T04:21:33;6.25;;;3.08;;
7645;SDS011;3864;48.180;14.178;2023-10-09T04:24:00;5.00;;;3.35;;
7645;SDS011;3864;48.180;14.178;2023-10-09T04:26:47;4.40;;;2.50;;
7645;SDS011;3864;48.180;14.178;2023-10-09T04:29:21;3.72;;;2.70;;
7645;SDS011;3864;48.180;14.178;2023-10-09T04:31:51;5.00;;;3.08;;
7645;SDS011;3864;48.180;14.178;2023-10-09T04:34:20;5.47;;;3.03;;
7645;SDS011;3864;48.180;14.178;2023-10-09T04:37:01;4.95;;;3.40;;
7645;SDS011;3864;48.180;14.178;2023-10-09T04:39:45;5.03;;;2.70;;
7645;SDS011;3864;48.180;14.178;2023-10-09T04:42:26;6.22;;;3.10;;
7645;SDS011;3864;48.180;14.178;2023-10-09T04:45:01;4.88;;;3.05;;
7645;SDS011;3864;48.180;14.178;2023-10-09T04:47:46;5.32;;;3.38;;
7645;SDS011;3864;48.180;14.178;2023-10-09T04:50:23;6.03;;;3.13;;
7645;SDS011;3864;48.180;14.178;2023-10-09T04:53:13;7.18;;;3.25;;
7645;SDS011;3864;48.180;14.178;2023-10-09T04:55:48;5.07;;;3.33;;
7645;SDS011;3864;48.180;14.178;2023-10-09T04:58:23;7.03;;;3.65;;
7645;SDS011;3864;48.180;14.178;2023-10-09T05:00:52;7.25;;;3.83;;
7645;SDS011;3864;48.180;14.178;2023-10-09T05:03:38;5.70;;;3.50;;
7645;SDS011;3864;48.180;14.178;2023-10-09T05:06:09;6.20;;;3.88;;
7645;SDS011;3864;48.180;14.178;2023-10-09T05:08:49;7.60;;;3.80;;
7645;SDS011;3864;48.180;14.178;2023-10-09T05:11:15;6.30;;;3.65;;
7645;SDS011;3864;48.180;14.178;2023-10-09T05:13:59;5.38;;;3.20;;
7645;SDS011;3864;48.180;14.178;2023-10-09T05:16:38;5.97;;;3.50;;
7645;SDS011;3864;48.180;14.178;2023-10-09T05:19:19;6.05;;;3.90;;
7645;SDS011;3864;48.180;14.178;2023-10-09T05:22:00;6.18;;;3.97;;
7645;SDS011;3864;48.180;14.178;2023-10-09T05:24:36;7.03;;;3.58;;
7645;SDS011;3864;48.180;14.178;2023-10-09T05:27:12;7.05;;;3.85;;
7645;SDS011;3864;48.180;14.178;2023-10-09T05:29:43;8.63;;;4.25;;
7645;SDS011;3864;48.180;14.178;2023-10-09T05:32:37;5.65;;;3.80;;
7645;SDS011;3864;48.180;14.178;2023-10-09T05:35:13;6.07;;;4.20;;
7645;SDS011;3864;48.180;14.178;2023-10-09T05:37:41;6.45;;;3.78;;
7645;SDS011;3864;48.180;14.178;2023-10-09T05:40:12;6.57;;;3.92;;
7645;SDS011;3864;48.180;14.178;2023-10-09T05:42:49;6.32;;;4.13;;
7645;SDS011;3864;48.180;14.178;2023-10-09T05:45:24;6.38;;;3.92;;
7645;SDS011;3864;48.180;14.178;2023-10-09T05:48:09;5.43;;;3.75;;
7645;SDS011;3864;48.180;14.178;2023-10-09T05:51:05;6.18;;;3.78;;
7645;SDS011;3864;48.180;14.178;2023-10-09T05:54:05;6.25;;;3.60;;
7645;SDS011;3864;48.180;14.178;2023-10-09T05:56:50;8.85;;;3.92;;
7645;SDS011;3864;48.180;14.178;2023-10-09T05:59:55;5.78;;;3.63;;
7645;SDS011;3864;48.180;14.178;2023-10-09T06:02:39;5.97;;;3.30;;
7645;SDS011;3864;48.180;14.178;2023-10-09T06:05:24;5.68;;;3.53;;
7645;SDS011;3864;48.180;14.178;2023-10-09T06:08:07;6.05;;;3.55;;
7645;SDS011;3864;48.180;14.178;2023-10-09T06:10:38;5.90;;;3.17;;
7645;SDS011;3864;48.180;14.178;2023-10-09T06:13:09;6.55;;;3.20;;
7645;SDS011;3864;48.180;14.178;2023-10-09T06:15:54;6.93;;;4.07;;
7645;SDS011;3864;48.180;14.178;2023-10-09T06:18:56;5.57;;;3.10;;
7645;SDS011;3864;48.180;14.178;2023-10-09T06:21:33;4.68;;;3.65;;
7645;SDS011;3864;48.180;14.178;2023-10-09T06:24:14;6.18;;;3.13;;
7645;SDS011;3864;48.180;14.178;2023-10-09T06:26:42;5.93;;;3.22;;
7645;SDS011;3864;48.180;14.178;2023-10-09T06:29:38;5.63;;;3.88;;
7645;SDS011;3864;48.180;14.178;2023-10-09T06:32:17;5.55;;;3.25;;
7645;SDS011;3864;48.180;14.178;2023-10-09T06:35:00;7.10;;;3.55;;
7645;SDS011;3864;48.180;14.178;2023-10-09T06:37:44;5.55;;;3.63;;
7645;SDS011;3864;48.180;14.178;2023-10-09T06:40:29;6.65;;;4.32;;
7645;SDS011;3864;48.180;14.178;2023-10-09T06:45:54;4.90;;;3.65;;
7645;SDS011;3864;48.180;14.178;2023-10-09T06:48:23;7.80;;;4.40;;
7645;SDS011;3864;48.180;14.178;2023-10-09T06:51:20;6.90;;;3.85;;
7645;SDS011;3864;48.180;14.178;2023-10-09T06:54:06;4.90;;;3.67;;
7645;SDS011;3864;48.180;14.178;2023-10-09T06:56:34;5.63;;;3.97;;
7645;SDS011;3864;48.180;14.178;2023-10-09T06:59:19;4.72;;;3.47;;
7645;SDS011;3864;48.180;14.178;2023-10-09T07:01:51;5.88;;;3.88;;
7645;SDS011;3864;48.180;14.178;2023-10-09T07:04:32;5.18;;;3.45;;
7645;SDS011;3864;48.180;14.178;2023-10-09T07:07:13;5.57;;;3.40;;
7645;SDS011;3864;48.180;14.178;2023-10-09T07:09:40;6.15;;;3.28;;
7645;SDS011;3864;48.180;14.178;2023-10-09T07:12:28;7.70;;;4.35;;
7645;SDS011;3864;48.180;14.178;2023-10-09T07:14:58;7.15;;;4.10;;
7645;SDS011;3864;48.180;14.178;2023-10-09T07:17:51;6.60;;;4.20;;
7645;SDS011;3864;48.180;14.178;2023-10-09T07:20:20;8.52;;;4.47;;
7645;SDS011;3864;48.180;14.178;2023-10-09T07:23:10;5.03;;;3.67;;
7645;SDS011;3864;48.180;14.178;2023-10-09T07:25:40;6.50;;;3.70;;
7645;SDS011;3864;48.180;14.178;2023-10-09T07:28:20;6.63;;;3.33;;
7645;SDS011;3864;48.180;14.178;2023-10-09T07:33:56;4.68;;;2.90;;
7645;SDS011;3864;48.180;14.178;2023-10-09T07:36:23;5.28;;;3.17;;
7645;SDS011;3864;48.180;14.178;2023-10-09T07:38:59;4.95;;;3.00;;
7645;SDS011;3864;48.180;14.178;2023-10-09T07:41:31;8.13;;;3.35;;
7645;SDS011;3864;48.180;14.178;2023-10-09T07:44:03;4.82;;;2.78;;
7645;SDS011;3864;48.180;14.178;2023-10-09T07:46:59;4.78;;;2.75;;
7645;SDS011;3864;48.180;14.178;2023-10-09T07:49:45;6.68;;;3.42;;
7645;SDS011;3864;48.180;14.178;2023-10-09T07:52:17;9.02;;;3.58;;
7645;SDS011;3864;48.180;14.178;2023-10-09T07:54:47;7.15;;;2.78;;
7645;SDS011;3864;48.180;14.178;2023-10-09T07:57:19;8.15;;;3.60;;
7645;SDS011;3864;48.180;14.178;2023-10-09T07:59:51;5.85;;;3.03;;
7645;SDS011;3864;48.180;14.178;2023-10-09T08:02:29;7.75;;;3.72;;
7645;SDS011;3864;48.180;14.178;2023-10-09T08:07:31;6.30;;;3.00;;
7645;SDS011;3864;48.180;14.178;2023-10-09T08:10:00;6.55;;;2.88;;
7645;SDS011;3864;48.180;14.178;2023-10-09T08:12:47;6.72;;;3.58;;
7645;SDS011;3864;48.180;14.178;2023-10-09T08:15:45;7.85;;;3.17;;
7645;SDS011;3864;48.180;14.178;2023-10-09T08:18:21;6.53;;;3.00;;
7645;SDS011;3864;48.180;14.178;2023-10-09T08:20:55;5.50;;;3.17;;
7645;SDS011;3864;48.180;14.178;2023-10-09T08:23:36;7.35;;;3.30;;
7645;SDS011;3864;48.180;14.178;2023-10-09T08:26:14;5.32;;;3.00;;
7645;SDS011;3864;48.180;14.178;2023-10-09T08:28:54;12.98;;;4.75;;
7645;SDS011;3864;48.180;14.178;2023-10-09T08:31:41;9.00;;;3.92;;
7645;SDS011;3864;48.180;14.178;2023-10-09T08:34:11;8.07;;;3.10;;
7645;SDS011;3864;48.180;14.178;2023-10-09T08:36:51;5.57;;;3.40;;
7645;SDS011;3864;48.180;14.178;2023-10-09T08:39:19;6.07;;;3.17;;
7645;SDS011;3864;48.180;14.178;2023-10-09T08:42:00;4.38;;;3.03;;
7645;SDS011;3864;48.180;14.178;2023-10-09T08:44:30;6.28;;;3.38;;
7645;SDS011;3864;48.180;14.178;2023-10-09T08:46:58;5.35;;;3.45;;
7645;SDS011;3864;48.180;14.178;2023-10-09T08:49:26;6.47;;;3.70;;
7645;SDS011;3864;48.180;14.178;2023-10-09T08:51:55;5.95;;;3.60;;
7645;SDS011;3864;48.180;14.178;2023-10-09T08:54:28;6.05;;;3.40;;
7645;SDS011;3864;48.180;14.178;2023-10-09T08:56:58;6.63;;;3.70;;
7645;SDS011;3864;48.180;14.178;2023-10-09T08:59:26;7.05;;;4.00;;
7645;SDS011;3864;48.180;14.178;2023-10-09T09:01:53;4.90;;;3.38;;
7645;SDS011;3864;48.180;14.178;2023-10-09T09:04:33;5.57;;;3.40;;
7645;SDS011;3864;48.180;14.178;2023-10-09T09:07:03;6.75;;;3.70;;
7645;SDS011;3864;48.180;14.178;2023-10-09T09:09:30;6.00;;;3.72;;
7645;SDS011;3864;48.180;14.178;2023-10-09T09:11:59;7.32;;;3.35;;
7645;SDS011;3864;48.180;14.178;2023-10-09T09:14:35;5.65;;;3.55;;
7645;SDS011;3864;48.180;14.178;2023-10-09T09:17:03;6.78;;;3.13;;
7645;SDS011;3864;48.180;14.178;2023-10-09T09:19:31;6.53;;;3.70;;
7645;SDS011;3864;48.180;14.178;2023-10-09T09:22:04;5.57;;;3.30;;
7645;SDS011;3864;48.180;14.178;2023-10-09T09:24:38;5.47;;;3.40;;
7645;SDS011;3864;48.180;14.178;2023-10-09T09:27:10;7.25;;;3.20;;
7645;SDS011;3864;48.180;14.178;2023-10-09T09:29:43;8.00;;;3.75;;
7645;SDS011;3864;48.180;14.178;2023-10-09T09:32:19;6.32;;;3.35;;
7645;SDS011;3864;48.180;14.178;2023-10-09T09:34:55;6.35;;;3.30;;
7645;SDS011;3864;48.180;14.178;2023-10-09T09:37:28;8.98;;;3.83;;
7645;SDS011;3864;48.180;14.178;2023-10-09T09:39:58;7.63;;;3.50;;
7645;SDS011;3864;48.180;14.178;2023-10-09T09:42:36;9.52;;;4.45;;
7645;SDS011;3864;48.180;14.178;2023-10-09T09:45:06;4.47;;;3.30;;
7645;SDS011;3864;48.180;14.178;2023-10-09T09:47:36;5.90;;;3.20;;
7645;SDS011;3864;48.180;14.178;2023-10-09T09:50:04;6.55;;;3.60;;
7645;SDS011;3864;48.180;14.178;2023-10-09T09:52:40;7.80;;;3.17;;
7645;SDS011;3864;48.180;14.178;2023-10-09T09:55:08;6.45;;;3.10;;
7645;SDS011;3864;48.180;14.178;2023-10-09T09:57:40;8.23;;;3.65;;
7645;SDS011;3864;48.180;14.178;2023-10-09T10:00:10;8.60;;;4.00;;
7645;SDS011;3864;48.180;14.178;2023-10-09T10:02:53;5.72;;;3.53;;
7645;SDS011;3864;48.180;14.178;2023-10-09T10:05:24;7.72;;;4.10;;
7645;SDS011;3864;48.180;14.178;2023-10-09T10:07:57;8.95;;;4.05;;
7645;SDS011;3864;48.180;14.178;2023-10-09T10:10:35;7.65;;;3.47;;
7645;SDS011;3864;48.180;14.178;2023-10-09T10:13:04;9.05;;;4.10;;
7645;SDS011;3864;48.180;14.178;2023-10-09T10:18:23;9.25;;;3.70;;
7645;SDS011;3864;48.180;14.178;2023-10-09T10:21:09;8.35;;;3.28;;
7645;SDS011;3864;48.180;14.178;2023-10-09T10:23:42;10.30;;;3.70;;
7645;SDS011;3864;48.180;14.178;2023-10-09T10:26:16;9.10;;;2.95;;
7645;SDS011;3864;48.180;14.178;2023-10-09T10:28:47;9.07;;;4.38;;
7645;SDS011;3864;48.180;14.178;2023-10-09T10:31:54;13.55;;;3.97;;
7645;SDS011;3864;48.180;14.178;2023-10-09T10:34:22;9.93;;;3.75;;
7645;SDS011;3864;48.180;14.178;2023-10-09T10:36:51;7.97;;;3.75;;
7645;SDS011;3864;48.180;14.178;2023-10-09T10:39:34;6.65;;;3.80;;
7645;SDS011;3864;48.180;14.178;2023-10-09T10:42:24;10.90;;;4.05;;
7645;SDS011;3864;48.180;14.178;2023-10-09T10:45:00;12.65;;;4.07;;
7645;SDS011;3864;48.180;14.178;2023-10-09T10:47:36;9.38;;;3.80;;
7645;SDS011;3864;48.180;14.178;2023-10-09T10:50:06;11.65;;;3.70;;
7645;SDS011;3864;48.180;14.178;2023-10-09T10:53:07;12.60;;;4.53;;
7645;SDS011;3864;48.180;14.178;2023-10-09T10:58:43;14.05;;;4.85;;
7645;SDS011;3864;48.180;14.178;2023-10-09T11:01:36;12.85;;;4.10;;
7645;SDS011;3864;48.180;14.178;2023-10-09T11:04:18;8.52;;;3.50;;
7645;SDS011;3864;48.180;14.178;2023-10-09T11:07:03;14.18;;;3.95;;
7645;SDS011;3864;48.180;14.178;2023-10-09T11:09:42;10.68;;;3.58;;
7645;SDS011;3864;48.180;14.178;2023-10-09T11:12:26;9.30;;;3.40;;
7645;SDS011;3864;48.180;14.178;2023-10-09T11:15:03;12.60;;;3.70;;
7645;SDS011;3864;48.180;14.178;2023-10-09T11:17:34;13.07;;;4.20;;
7645;SDS011;3864;48.180;14.178;2023-10-09T11:20:04;9.93;;;4.22;;
7645;SDS011;3864;48.180;14.178;2023-10-09T11:22:46;12.63;;;3.30;;
7645;SDS011;3864;48.180;14.178;2023-10-09T11:25:37;8.85;;;3.33;;
7645;SDS011;3864;48.180;14.178;2023-10-09T11:28:17;8.75;;;3.63;;
7645;SDS011;3864;48.180;14.178;2023-10-09T11:33:43;10.75;;;3.45;;
7645;SDS011;3864;48.180;14.178;2023-10-09T11:36:10;9.02;;;3.33;;
7645;SDS011;3864;48.180;14.178;2023-10-09T11:38:37;13.88;;;3.90;;
7645;SDS011;3864;48.180;14.178;2023-10-09T11:41:12;8.65;;;3.90;;
7645;SDS011;3864;48.180;14.178;2023-10-09T11:46:30;13.52;;;4.18;;
7645;SDS011;3864;48.180;14.178;2023-10-09T11:51:51;9.75;;;3.95;;
7645;SDS011;3864;48.180;14.178;2023-10-09T11:54:55;10.07;;;3.58;;
7645;SDS011;3864;48.180;14.178;2023-10-09T11:57:25;11.57;;;4.18;;
7645;SDS011;3864;48.180;14.178;2023-10-09T12:00:03;13.35;;;4.07;;
7645;SDS011;3864;48.180;14.178;2023-10-09T12:05:17;9.07;;;4.15;;
7645;SDS011;3864;48.180;14.178;2023-10-09T12:07:44;17.52;;;3.42;;
7645;SDS011;3864;48.180;14.178;2023-10-09T12:10:12;10.73;;;3.42;;
7645;SDS011;3864;48.180;14.178;2023-10-09T12:12:49;12.27;;;4.35;;
7645;SDS011;3864;48.180;14.178;2023-10-09T12:15:18;12.48;;;4.30;;
7645;SDS011;3864;48.180;14.178;2023-10-09T12:17:46;14.93;;;4.43;;
7645;SDS011;3864;48.180;14.178;2023-10-09T12:20:14;9.38;;;4.47;;
7645;SDS011;3864;48.180;14.178;2023-10-09T12:22:56;7.95;;;3.78;;
7645;SDS011;3864;48.180;14.178;2023-10-09T12:25:24;10.68;;;3.90;;
7645;SDS011;3864;48.180;14.178;2023-10-09T12:27:51;13.55;;;3.92;;
7645;SDS011;3864;48.180;14.178;2023-10-09T12:30:24;15.23;;;4.53;;
7645;SDS011;3864;48.180;14.178;2023-10-09T12:32:53;11.90;;;3.92;;
7645;SDS011;3864;48.180;14.178;2023-10-09T12:35:22;12.88;;;4.43;;
7645;SDS011;3864;48.180;14.178;2023-10-09T12:37:50;12.65;;;3.70;;
7645;SDS011;3864;48.180;14.178;2023-10-09T12:40:19;11.13;;;3.78;;
7645;SDS011;3864;48.180;14.178;2023-10-09T12:42:54;14.05;;;4.50;;
7645;SDS011;3864;48.180;14.178;2023-10-09T12:45:25;12.60;;;4.80;;
7645;SDS011;3864;48.180;14.178;2023-10-09T12:47:57;11.27;;;4.03;;
7645;SDS011;3864;48.180;14.178;2023-10-09T12:50:27;9.57;;;3.50;;
7645;SDS011;3864;48.180;14.178;2023-10-09T12:52:58;11.40;;;4.68;;
7645;SDS011;3864;48.180;14.178;2023-10-09T12:55:35;14.25;;;3.95;;
7645;SDS011;3864;48.180;14.178;2023-10-09T12:58:05;13.48;;;5.22;;
7645;SDS011;3864;48.180;14.178;2023-10-09T13:00:36;13.40;;;4.30;;
7645;SDS011;3864;48.180;14.178;2023-10-09T13:03:09;14.50;;;4.35;;
7645;SDS011;3864;48.180;14.178;2023-10-09T13:05:43;14.52;;;5.20;;
7645;SDS011;3864;48.180;14.178;2023-10-09T13:08:17;11.02;;;4.03;;
7645;SDS011;3864;48.180;14.178;2023-10-09T13:10:46;11.00;;;4.70;;
7645;SDS011;3864;48.180;14.178;2023-10-09T13:13:23;14.23;;;4.47;;
7645;SDS011;3864;48.180;14.178;2023-10-09T13:16:06;15.02;;;3.90;;
7645;SDS011;3864;48.180;14.178;2023-10-09T13:18:36;12.45;;;3.90;;
7645;SDS011;3864;48.180;14.178;2023-10-09T13:21:04;11.77;;;4.57;;
7645;SDS011;3864;48.180;14.178;2023-10-09T13:23:32;18.13;;;6.13;;
7645;SDS011;3864;48.180;14.178;2023-10-09T13:26:07;34.60;;;14.70;;
7645;SDS011;3864;48.180;14.178;2023-10-09T13:28:46;9.85;;;4.03;;
7645;SDS011;3864;48.180;14.178;2023-10-09T13:31:17;12.95;;;4.80;;
7645;SDS011;3864;48.180;14.178;2023-10-09T13:33:46;15.43;;;6.13;;
7645;SDS011;3864;48.180;14.178;2023-10-09T13:36:14;12.32;;;4.65;;
7645;SDS011;3864;48.180;14.178;2023-10-09T13:38:52;11.05;;;5.00;;
7645;SDS011;3864;48.180;14.178;2023-10-09T13:41:19;13.52;;;5.82;;
7645;SDS011;3864;48.180;14.178;2023-10-09T13:43:47;13.05;;;4.25;;
7645;SDS011;3864;48.180;14.178;2023-10-09T13:46:18;8.05;;;4.53;;
7645;SDS011;3864;48.180;14.178;2023-10-09T13:48:45;11.23;;;4.38;;
7645;SDS011;3864;48.180;14.178;2023-10-09T13:51:14;21.38;;;4.78;;
7645;SDS011;3864;48.180;14.178;2023-10-09T13:53:43;11.90;;;4.70;;
7645;SDS011;3864;48.180;14.178;2023-10-09T13:56:14;12.63;;;5.13;;
7645;SDS011;3864;48.180;14.178;2023-10-09T13:58:47;15.02;;;5.15;;
7645;SDS011;3864;48.180;14.178;2023-10-09T14:01:19;10.15;;;4.70;;
7645;SDS011;3864;48.180;14.178;2023-10-09T14:03:58;8.70;;;4.13;;
7645;SDS011;3864;48.180;14.178;2023-10-09T14:06:26;9.90;;;4.20;;
7645;SDS011;3864;48.180;14.178;2023-10-09T14:08:57;16.83;;;4.85;;
7645;SDS011;3864;48.180;14.178;2023-10-09T14:11:27;10.23;;;5.55;;
7645;SDS011;3864;48.180;14.178;2023-10-09T14:13:54;11.18;;;4.57;;
7645;SDS011;3864;48.180;14.178;2023-10-09T14:16:22;16.63;;;10.45;;
7645;SDS011;3864;48.180;14.178;2023-10-09T14:18:56;17.88;;;7.95;;
7645;SDS011;3864;48.180;14.178;2023-10-09T14:21:25;11.88;;;5.05;;
7645;SDS011;3864;48.180;14.178;2023-10-09T14:23:55;9.32;;;4.82;;
7645;SDS011;3864;48.180;14.178;2023-10-09T14:26:27;14.88;;;5.07;;
7645;SDS011;3864;48.180;14.178;2023-10-09T14:28:54;13.10;;;5.20;;
7645;SDS011;3864;48.180;14.178;2023-10-09T14:31:25;10.23;;;4.93;;
7645;SDS011;3864;48.180;14.178;2023-10-09T14:33:53;13.55;;;4.97;;
7645;SDS011;3864;48.180;14.178;2023-10-09T14:36:21;12.40;;;5.07;;
7645;SDS011;3864;48.180;14.178;2023-10-09T14:38:50;18.15;;;5.40;;
7645;SDS011;3864;48.180;14.178;2023-10-09T14:41:20;12.65;;;5.30;;
7645;SDS011;3864;48.180;14.178;2023-10-09T14:43:50;13.15;;;4.78;;
7645;SDS011;3864;48.180;14.178;2023-10-09T14:46:18;14.23;;;5.32;;
7645;SDS011;3864;48.180;14.178;2023-10-09T14:48:52;12.35;;;4.10;;
7645;SDS011;3864;48.180;14.178;2023-10-09T14:51:20;9.52;;;4.65;;
7645;SDS011;3864;48.180;14.178;2023-10-09T14:53:54;9.85;;;4.45;;
7645;SDS011;3864;48.180;14.178;2023-10-09T14:56:24;14.05;;;5.65;;
7645;SDS011;3864;48.180;14.178;2023-10-09T14:58:55;11.60;;;5.35;;
7645;SDS011;3864;48.180;14.178;2023-10-09T15:01:24;19.30;;;6.53;;
7645;SDS011;3864;48.180;14.178;2023-10-09T15:03:56;11.15;;;5.22;;
7645;SDS011;3864;48.180;14.178;2023-10-09T15:06:25;10.55;;;4.38;;
7645;SDS011;3864;48.180;14.178;2023-10-09T15:08:55;10.50;;;4.95;;
7645;SDS011;3864;48.180;14.178;2023-10-09T15:11:23;11.43;;;4.90;;
7645;SDS011;3864;48.180;14.178;2023-10-09T15:13:51;15.50;;;5.07;;
7645;SDS011;3864;48.180;14.178;2023-10-09T15:16:19;12.40;;;4.88;;
7645;SDS011;3864;48.180;14.178;2023-10-09T15:18:51;14.15;;;5.03;;
7645;SDS011;3864;48.180;14.178;2023-10-09T15:21:21;9.63;;;3.92;;
7645;SDS011;3864;48.180;14.178;2023-10-09T15:23:51;10.60;;;4.70;;
7645;SDS011;3864;48.180;14.178;2023-10-09T15:26:19;14.07;;;3.90;;
7645;SDS011;3864;48.180;14.178;2023-10-09T15:28:49;7.20;;;3.95;;
7645;SDS011;3864;48.180;14.178;2023-10-09T15:31:16;9.45;;;4.13;;
7645;SDS011;3864;48.180;14.178;2023-10-09T15:33:46;9.82;;;3.67;;
7645;SDS011;3864;48.180;14.178;2023-10-09T15:36:16;10.10;;;3.10;;
7645;SDS011;3864;48.180;14.178;2023-10-09T15:38:47;9.77;;;3.72;;
7645;SDS011;3864;48.180;14.178;2023-10-09T15:41:15;14.45;;;3.33;;
7645;SDS011;3864;48.180;14.178;2023-10-09T15:43:43;9.98;;;3.33;;
7645;SDS011;3864;48.180;14.178;2023-10-09T15:46:11;9.35;;;4.15;;
7645;SDS011;3864;48.180;14.178;2023-10-09T15:48:40;11.77;;;3.00;;
7645;SDS011;3864;48.180;14.178;2023-10-09T15:51:11;11.05;;;2.85;;
7645;SDS011;3864;48.180;14.178;2023-10-09T15:53:40;8.18;;;2.88;;
7645;SDS011;3864;48.180;14.178;2023-10-09T15:56:10;9.25;;;3.05;;
7645;SDS011;3864;48.180;14.178;2023-10-09T15:58:38;13.07;;;3.45;;
7645;SDS011;3864;48.180;14.178;2023-10-09T16:01:08;11.30;;;3.22;;
7645;SDS011;3864;48.180;14.178;2023-10-09T16:03:38;11.38;;;2.88;;
7645;SDS011;3864;48.180;14.178;2023-10-09T16:06:07;9.35;;;3.08;;
7645;SDS011;3864;48.180;14.178;2023-10-09T16:08:37;11.93;;;2.92;;
7645;SDS011;3864;48.180;14.178;2023-10-09T16:11:05;10.05;;;2.70;;